sensor_id;sensor_type;location;lat;lon;timestamp;pressure;altitude;pressure_sealevel;temperature;humidity
44131;BME280;29792;48.726;9.248;2023-05-22T00:02:10;96512.44;;;17.50;86.89
44131;BME280;29792;48.726;9.248;2023-05-22T00:04:35;96515.38;;;17.47;87.13
44131;BME280;29792;48.726;9.248;2023-05-22T00:07:00;96513.13;;;17.44;87.08
44131;BME280;29792;48.726;9.248;2023-05-22T00:09:25;96514.31;;;17.41;87.41
44131;BME280;29792;48.726;9.248;2023-05-22T00:11:51;96515.91;;;17.42;87.44
44131;BME280;29792;48.726;9.248;2023-05-22T00:14:16;96515.28;;;17.40;86.92
44131;BME280;29792;48.726;9.248;2023-05-22T00:16:42;96519.03;;;17.38;87.61
44131;BME280;29792;48.726;9.248;2023-05-22T00:19:08;96509.03;;;17.35;87.74
44131;BME280;29792;48.726;9.248;2023-05-22T00:21:41;96505.66;;;17.34;87.79
44131;BME280;29792;48.726;9.248;2023-05-22T00:24:07;96505.81;;;17.33;87.80
44131;BME280;29792;48.726;9.248;2023-05-22T00:26:33;96507.59;;;17.32;88.13
44131;BME280;29792;48.726;9.248;2023-05-22T00:28:58;96496.78;;;17.29;88.45
44131;BME280;29792;48.726;9.248;2023-05-22T00:31:23;96490.19;;;17.26;88.23
44131;BME280;29792;48.726;9.248;2023-05-22T00:33:49;96497.31;;;17.24;88.48
44131;BME280;29792;48.726;9.248;2023-05-22T00:36:14;96493.28;;;17.22;88.49
44131;BME280;29792;48.726;9.248;2023-05-22T00:38:39;96491.41;;;17.15;89.28
44131;BME280;29792;48.726;9.248;2023-05-22T00:41:05;96492.94;;;17.10;89.46
44131;BME280;29792;48.726;9.248;2023-05-22T00:43:31;96496.03;;;17.05;89.57
44131;BME280;29792;48.726;9.248;2023-05-22T00:45:57;96497.00;;;17.04;89.79
44131;BME280;29792;48.726;9.248;2023-05-22T00:48:23;96500.78;;;17.02;89.87
44131;BME280;29792;48.726;9.248;2023-05-22T00:50:50;96499.69;;;16.96;89.84
44131;BME280;29792;48.726;9.248;2023-05-22T00:53:16;96497.00;;;16.90;89.85
44131;BME280;29792;48.726;9.248;2023-05-22T00:55:44;96499.47;;;16.83;90.24
44131;BME280;29792;48.726;9.248;2023-05-22T00:58:13;96496.63;;;16.78;90.61
44131;BME280;29792;48.726;9.248;2023-05-22T01:00:39;96507.81;;;16.70;90.91
44131;BME280;29792;48.726;9.248;2023-05-22T01:03:06;96508.50;;;16.64;91.46
44131;BME280;29792;48.726;9.248;2023-05-22T01:05:32;96506.56;;;16.58;91.83
44131;BME280;29792;48.726;9.248;2023-05-22T01:07:58;96510.47;;;16.54;92.46
44131;BME280;29792;48.726;9.248;2023-05-22T01:10:24;96500.31;;;16.53;92.73
44131;BME280;29792;48.726;9.248;2023-05-22T01:13:18;96503.88;;;16.52;93.12
44131;BME280;29792;48.726;9.248;2023-05-22T01:15:56;96504.06;;;16.50;93.32
44131;BME280;29792;48.726;9.248;2023-05-22T01:18:40;96505.34;;;16.46;93.10
44131;BME280;29792;48.726;9.248;2023-05-22T01:21:32;96510.53;;;16.46;93.59
44131;BME280;29792;48.726;9.248;2023-05-22T01:24:28;96513.09;;;16.46;93.29
44131;BME280;29792;48.726;9.248;2023-05-22T01:29:27;96514.13;;;16.45;93.84
44131;BME280;29792;48.726;9.248;2023-05-22T01:31:56;96517.66;;;16.44;93.81
44131;BME280;29792;48.726;9.248;2023-05-22T01:34:24;96517.03;;;16.42;94.25
44131;BME280;29792;48.726;9.248;2023-05-22T01:36:51;96521.56;;;16.40;94.25
44131;BME280;29792;48.726;9.248;2023-05-22T01:39:18;96523.06;;;16.34;93.86
44131;BME280;29792;48.726;9.248;2023-05-22T01:41:43;96519.38;;;16.29;94.61
44131;BME280;29792;48.726;9.248;2023-05-22T01:44:09;96528.00;;;16.21;94.60
44131;BME280;29792;48.726;9.248;2023-05-22T01:46:34;96522.88;;;16.13;95.01
44131;BME280;29792;48.726;9.248;2023-05-22T01:49:00;96521.91;;;16.06;95.76
44131;BME280;29792;48.726;9.248;2023-05-22T01:51:39;96514.84;;;16.00;95.81
44131;BME280;29792;48.726;9.248;2023-05-22T01:54:18;96519.53;;;15.96;96.25
44131;BME280;29792;48.726;9.248;2023-05-22T01:56:56;96519.88;;;15.93;96.86
44131;BME280;29792;48.726;9.248;2023-05-22T01:59:39;96524.38;;;15.91;96.47
44131;BME280;29792;48.726;9.248;2023-05-22T02:02:09;96528.75;;;15.91;96.79
44131;BME280;29792;48.726;9.248;2023-05-22T02:04:41;96529.72;;;15.90;97.18
44131;BME280;29792;48.726;9.248;2023-05-22T02:07:10;96531.34;;;15.91;97.20
44131;BME280;29792;48.726;9.248;2023-05-22T02:09:39;96524.56;;;15.90;97.21
44131;BME280;29792;48.726;9.248;2023-05-22T02:12:05;96524.91;;;15.87;96.75
44131;BME280;29792;48.726;9.248;2023-05-22T02:14:31;96525.22;;;15.84;97.14
44131;BME280;29792;48.726;9.248;2023-05-22T02:16:56;96518.63;;;15.81;97.31
44131;BME280;29792;48.726;9.248;2023-05-22T02:19:22;96529.13;;;15.80;97.36
44131;BME280;29792;48.726;9.248;2023-05-22T02:21:47;96526.72;;;15.78;97.59
44131;BME280;29792;48.726;9.248;2023-05-22T02:24:12;96527.84;;;15.76;97.48
44131;BME280;29792;48.726;9.248;2023-05-22T02:26:38;96516.41;;;15.70;97.95
44131;BME280;29792;48.726;9.248;2023-05-22T02:29:04;96526.75;;;15.70;98.78
44131;BME280;29792;48.726;9.248;2023-05-22T02:31:29;96515.59;;;15.70;99.54
44131;BME280;29792;48.726;9.248;2023-05-22T02:33:54;96519.16;;;15.69;99.74
44131;BME280;29792;48.726;9.248;2023-05-22T02:36:20;96519.16;;;15.69;99.81
44131;BME280;29792;48.726;9.248;2023-05-22T02:38:45;96517.06;;;15.72;100.00
44131;BME280;29792;48.726;9.248;2023-05-22T02:41:11;96517.66;;;15.74;100.00
44131;BME280;29792;48.726;9.248;2023-05-22T02:43:36;96516.53;;;15.77;100.00
44131;BME280;29792;48.726;9.248;2023-05-22T02:46:01;96511.22;;;15.78;100.00
44131;BME280;29792;48.726;9.248;2023-05-22T02:48:27;96517.84;;;15.81;100.00
44131;BME280;29792;48.726;9.248;2023-05-22T02:50:53;96518.44;;;15.83;100.00
44131;BME280;29792;48.726;9.248;2023-05-22T02:53:18;96520.22;;;15.82;100.00
44131;BME280;29792;48.726;9.248;2023-05-22T02:55:44;96522.19;;;15.80;100.00
44131;BME280;29792;48.726;9.248;2023-05-22T02:58:10;96521.22;;;15.73;100.00
44131;BME280;29792;48.726;9.248;2023-05-22T03:00:36;96517.09;;;15.64;100.00
44131;BME280;29792;48.726;9.248;2023-05-22T03:03:02;96521.91;;;15.59;100.00
44131;BME280;29792;48.726;9.248;2023-05-22T03:05:27;96520.81;;;15.53;100.00
44131;BME280;29792;48.726;9.248;2023-05-22T03:07:53;96521.09;;;15.50;100.00
44131;BME280;29792;48.726;9.248;2023-05-22T03:10:18;96514.69;;;15.46;100.00
44131;BME280;29792;48.726;9.248;2023-05-22T03:12:43;96524.50;;;15.43;100.00
44131;BME280;29792;48.726;9.248;2023-05-22T03:15:09;96524.22;;;15.38;100.00
44131;BME280;29792;48.726;9.248;2023-05-22T03:17:35;96523.72;;;15.34;100.00
44131;BME280;29792;48.726;9.248;2023-05-22T03:20:00;96521.94;;;15.35;100.00
44131;BME280;29792;48.726;9.248;2023-05-22T03:22:25;96522.59;;;15.37;100.00
44131;BME280;29792;48.726;9.248;2023-05-22T03:24:51;96525.81;;;15.39;100.00
44131;BME280;29792;48.726;9.248;2023-05-22T03:27:16;96537.13;;;15.38;100.00
44131;BME280;29792;48.726;9.248;2023-05-22T03:29:41;96539.38;;;15.33;100.00
44131;BME280;29792;48.726;9.248;2023-05-22T03:32:07;96546.34;;;15.32;100.00
44131;BME280;29792;48.726;9.248;2023-05-22T03:34:32;96552.63;;;15.30;100.00
44131;BME280;29792;48.726;9.248;2023-05-22T03:36:57;96553.59;;;15.28;100.00
44131;BME280;29792;48.726;9.248;2023-05-22T03:39:23;96552.78;;;15.28;100.00
44131;BME280;29792;48.726;9.248;2023-05-22T03:41:48;96553.91;;;15.25;100.00
44131;BME280;29792;48.726;9.248;2023-05-22T03:44:13;96554.09;;;15.24;100.00
44131;BME280;29792;48.726;9.248;2023-05-22T03:46:38;96545.69;;;15.22;100.00
44131;BME280;29792;48.726;9.248;2023-05-22T03:49:04;96545.53;;;15.23;100.00
44131;BME280;29792;48.726;9.248;2023-05-22T03:51:29;96543.91;;;15.22;100.00
44131;BME280;29792;48.726;9.248;2023-05-22T03:53:55;96545.84;;;15.20;100.00
44131;BME280;29792;48.726;9.248;2023-05-22T03:56:20;96550.19;;;15.20;100.00
44131;BME280;29792;48.726;9.248;2023-05-22T03:58:46;96546.00;;;15.19;100.00
44131;BME280;29792;48.726;9.248;2023-05-22T04:01:11;96542.63;;;15.18;100.00
44131;BME280;29792;48.726;9.248;2023-05-22T04:03:37;96540.38;;;15.15;100.00
44131;BME280;29792;48.726;9.248;2023-05-22T04:06:03;96543.94;;;15.14;100.00
44131;BME280;29792;48.726;9.248;2023-05-22T04:08:29;96554.09;;;15.16;100.00
44131;BME280;29792;48.726;9.248;2023-05-22T04:10:54;96555.53;;;15.18;100.00
44131;BME280;29792;48.726;9.248;2023-05-22T04:13:20;96551.97;;;15.19;100.00
44131;BME280;29792;48.726;9.248;2023-05-22T04:15:45;96555.06;;;15.23;100.00
44131;BME280;29792;48.726;9.248;2023-05-22T04:18:11;96551.50;;;15.24;100.00
44131;BME280;29792;48.726;9.248;2023-05-22T04:20:36;96558.91;;;15.27;100.00
44131;BME280;29792;48.726;9.248;2023-05-22T04:23:01;96561.00;;;15.32;100.00
44131;BME280;29792;48.726;9.248;2023-05-22T04:25:26;96561.31;;;15.37;100.00
44131;BME280;29792;48.726;9.248;2023-05-22T04:27:52;96561.81;;;15.40;100.00
44131;BME280;29792;48.726;9.248;2023-05-22T04:30:17;96559.69;;;15.44;100.00
44131;BME280;29792;48.726;9.248;2023-05-22T04:32:43;96557.75;;;15.46;100.00
44131;BME280;29792;48.726;9.248;2023-05-22T04:35:09;96555.97;;;15.46;100.00
44131;BME280;29792;48.726;9.248;2023-05-22T04:37:36;96562.75;;;15.47;100.00
44131;BME280;29792;48.726;9.248;2023-05-22T04:40:01;96565.81;;;15.51;100.00
44131;BME280;29792;48.726;9.248;2023-05-22T04:42:32;96568.09;;;15.54;100.00
44131;BME280;29792;48.726;9.248;2023-05-22T04:44:58;96564.56;;;15.55;100.00
44131;BME280;29792;48.726;9.248;2023-05-22T04:47:24;96564.38;;;15.56;100.00
44131;BME280;29792;48.726;9.248;2023-05-22T04:49:49;96565.00;;;15.58;100.00
44131;BME280;29792;48.726;9.248;2023-05-22T04:52:15;96566.16;;;15.56;100.00
44131;BME280;29792;48.726;9.248;2023-05-22T04:54:41;96562.78;;;15.55;100.00
44131;BME280;29792;48.726;9.248;2023-05-22T04:57:08;96567.28;;;15.53;100.00
44131;BME280;29792;48.726;9.248;2023-05-22T04:59:35;96576.13;;;15.51;100.00
44131;BME280;29792;48.726;9.248;2023-05-22T05:02:06;96571.31;;;15.48;100.00
44131;BME280;29792;48.726;9.248;2023-05-22T05:04:32;96568.88;;;15.46;100.00
44131;BME280;29792;48.726;9.248;2023-05-22T05:06:57;96572.44;;;15.45;100.00
44131;BME280;29792;48.726;9.248;2023-05-22T05:09:23;96576.94;;;15.43;100.00
44131;BME280;29792;48.726;9.248;2023-05-22T05:11:49;96577.44;;;15.39;100.00
44131;BME280;29792;48.726;9.248;2023-05-22T05:14:15;96574.72;;;15.32;100.00
44131;BME280;29792;48.726;9.248;2023-05-22T05:16:40;96571.66;;;15.28;100.00
44131;BME280;29792;48.726;9.248;2023-05-22T05:19:06;96576.16;;;15.26;100.00
44131;BME280;29792;48.726;9.248;2023-05-22T05:21:31;96577.78;;;15.27;100.00
44131;BME280;29792;48.726;9.248;2023-05-22T05:23:56;96570.69;;;15.30;100.00
44131;BME280;29792;48.726;9.248;2023-05-22T05:26:22;96571.00;;;15.35;100.00
44131;BME280;29792;48.726;9.248;2023-05-22T05:28:48;96570.66;;;15.38;100.00
44131;BME280;29792;48.726;9.248;2023-05-22T05:31:14;96575.19;;;15.44;100.00
44131;BME280;29792;48.726;9.248;2023-05-22T05:33:39;96564.38;;;15.48;100.00
44131;BME280;29792;48.726;9.248;2023-05-22T05:36:05;96566.31;;;15.54;100.00
44131;BME280;29792;48.726;9.248;2023-05-22T05:38:30;96571.78;;;15.59;100.00
44131;BME280;29792;48.726;9.248;2023-05-22T05:40:56;96574.22;;;15.61;100.00
44131;BME280;29792;48.726;9.248;2023-05-22T05:43:21;96573.91;;;15.64;100.00
44131;BME280;29792;48.726;9.248;2023-05-22T05:45:47;96569.03;;;15.69;100.00
44131;BME280;29792;48.726;9.248;2023-05-22T05:48:12;96572.41;;;15.78;100.00
44131;BME280;29792;48.726;9.248;2023-05-22T05:50:37;96571.56;;;15.85;100.00
44131;BME280;29792;48.726;9.248;2023-05-22T05:53:03;96576.69;;;15.93;100.00
44131;BME280;29792;48.726;9.248;2023-05-22T05:55:28;96573.81;;;15.96;100.00
44131;BME280;29792;48.726;9.248;2023-05-22T05:57:54;96573.44;;;15.99;100.00
44131;BME280;29792;48.726;9.248;2023-05-22T06:00:19;96572.97;;;16.04;100.00
44131;BME280;29792;48.726;9.248;2023-05-22T06:02:46;96573.25;;;16.09;100.00
44131;BME280;29792;48.726;9.248;2023-05-22T06:05:12;96576.13;;;16.14;100.00
44131;BME280;29792;48.726;9.248;2023-05-22T06:07:39;96577.75;;;16.15;100.00
44131;BME280;29792;48.726;9.248;2023-05-22T06:10:05;96587.91;;;16.17;100.00
44131;BME280;29792;48.726;9.248;2023-05-22T06:12:31;96591.78;;;16.21;100.00
44131;BME280;29792;48.726;9.248;2023-05-22T06:14:56;96597.41;;;16.24;100.00
44131;BME280;29792;48.726;9.248;2023-05-22T06:17:21;96598.72;;;16.28;100.00
44131;BME280;29792;48.726;9.248;2023-05-22T06:19:47;96593.81;;;16.33;100.00
44131;BME280;29792;48.726;9.248;2023-05-22T06:22:12;96589.94;;;16.37;100.00
44131;BME280;29792;48.726;9.248;2023-05-22T06:24:37;96594.25;;;16.45;100.00
44131;BME280;29792;48.726;9.248;2023-05-22T06:27:03;96596.16;;;16.51;100.00
44131;BME280;29792;48.726;9.248;2023-05-22T06:29:28;96594.50;;;16.58;100.00
44131;BME280;29792;48.726;9.248;2023-05-22T06:31:53;96597.25;;;16.65;100.00
44131;BME280;29792;48.726;9.248;2023-05-22T06:34:18;96600.13;;;16.70;100.00
44131;BME280;29792;48.726;9.248;2023-05-22T06:36:46;96600.41;;;16.75;100.00
44131;BME280;29792;48.726;9.248;2023-05-22T06:39:11;96599.44;;;16.76;100.00
44131;BME280;29792;48.726;9.248;2023-05-22T06:41:36;96602.31;;;16.81;100.00
44131;BME280;29792;48.726;9.248;2023-05-22T06:44:02;96604.84;;;16.89;100.00
44131;BME280;29792;48.726;9.248;2023-05-22T06:46:27;96601.72;;;17.02;100.00
44131;BME280;29792;48.726;9.248;2023-05-22T06:48:52;96600.31;;;17.14;100.00
44131;BME280;29792;48.726;9.248;2023-05-22T06:51:19;96608.13;;;17.29;100.00
44131;BME280;29792;48.726;9.248;2023-05-22T06:53:45;96603.59;;;17.45;100.00
44131;BME280;29792;48.726;9.248;2023-05-22T06:56:10;96603.56;;;17.68;100.00
44131;BME280;29792;48.726;9.248;2023-05-22T06:58:35;96607.63;;;18.00;100.00
44131;BME280;29792;48.726;9.248;2023-05-22T07:01:01;96599.66;;;18.31;100.00
44131;BME280;29792;48.726;9.248;2023-05-22T07:03:26;96605.63;;;18.61;100.00
44131;BME280;29792;48.726;9.248;2023-05-22T07:05:52;96603.19;;;18.95;100.00
44131;BME280;29792;48.726;9.248;2023-05-22T07:08:18;96602.63;;;19.21;100.00
44131;BME280;29792;48.726;9.248;2023-05-22T07:10:44;96603.81;;;19.47;100.00
44131;BME280;29792;48.726;9.248;2023-05-22T07:13:09;96603.50;;;19.77;100.00
44131;BME280;29792;48.726;9.248;2023-05-22T07:15:35;96610.69;;;20.10;99.21
44131;BME280;29792;48.726;9.248;2023-05-22T07:18:00;96614.97;;;20.31;96.80
44131;BME280;29792;48.726;9.248;2023-05-22T07:20:25;96612.88;;;20.47;95.37
44131;BME280;29792;48.726;9.248;2023-05-22T07:22:51;96608.34;;;20.69;93.76
44131;BME280;29792;48.726;9.248;2023-05-22T07:25:16;96620.81;;;20.93;93.00
44131;BME280;29792;48.726;9.248;2023-05-22T07:27:41;96609.88;;;21.18;91.17
44131;BME280;29792;48.726;9.248;2023-05-22T07:30:07;96613.91;;;21.47;90.05
44131;BME280;29792;48.726;9.248;2023-05-22T07:32:32;96613.69;;;21.75;89.03
44131;BME280;29792;48.726;9.248;2023-05-22T07:34:57;96616.06;;;21.96;86.82
44131;BME280;29792;48.726;9.248;2023-05-22T07:37:23;96612.84;;;22.07;85.36
44131;BME280;29792;48.726;9.248;2023-05-22T07:39:48;96615.88;;;22.11;83.90
44131;BME280;29792;48.726;9.248;2023-05-22T07:42:13;96615.84;;;22.17;84.31
44131;BME280;29792;48.726;9.248;2023-05-22T07:44:39;96612.97;;;22.32;83.30
44131;BME280;29792;48.726;9.248;2023-05-22T07:47:04;96616.75;;;22.42;82.02
44131;BME280;29792;48.726;9.248;2023-05-22T07:49:30;96609.88;;;22.55;83.00
44131;BME280;29792;48.726;9.248;2023-05-22T07:51:55;96608.44;;;22.65;82.04
44131;BME280;29792;48.726;9.248;2023-05-22T07:54:20;96612.59;;;22.73;82.69
44131;BME280;29792;48.726;9.248;2023-05-22T07:56:45;96608.16;;;22.80;82.35
44131;BME280;29792;48.726;9.248;2023-05-22T07:59:11;96600.13;;;22.81;80.38
44131;BME280;29792;48.726;9.248;2023-05-22T08:01:38;96614.00;;;22.82;80.27
44131;BME280;29792;48.726;9.248;2023-05-22T08:04:03;96609.78;;;22.81;79.96
44131;BME280;29792;48.726;9.248;2023-05-22T08:06:29;96612.38;;;22.81;78.62
44131;BME280;29792;48.726;9.248;2023-05-22T08:08:55;96615.66;;;22.76;78.71
44131;BME280;29792;48.726;9.248;2023-05-22T08:11:20;96615.22;;;22.73;79.72
44131;BME280;29792;48.726;9.248;2023-05-22T08:13:46;96620.44;;;22.73;80.76
44131;BME280;29792;48.726;9.248;2023-05-22T08:16:11;96617.22;;;22.71;79.86
44131;BME280;29792;48.726;9.248;2023-05-22T08:18:37;96616.44;;;22.70;79.94
44131;BME280;29792;48.726;9.248;2023-05-22T08:21:02;96616.84;;;22.67;79.04
44131;BME280;29792;48.726;9.248;2023-05-22T08:23:27;96612.22;;;22.69;79.85
44131;BME280;29792;48.726;9.248;2023-05-22T08:25:54;96612.59;;;22.73;80.05
44131;BME280;29792;48.726;9.248;2023-05-22T08:28:19;96617.66;;;22.68;77.54
44131;BME280;29792;48.726;9.248;2023-05-22T08:30:44;96610.66;;;22.62;77.52
44131;BME280;29792;48.726;9.248;2023-05-22T08:33:10;96606.69;;;22.53;78.39
44131;BME280;29792;48.726;9.248;2023-05-22T08:35:35;96616.72;;;22.49;78.50
44131;BME280;29792;48.726;9.248;2023-05-22T08:38:01;96615.56;;;22.45;78.91
44131;BME280;29792;48.726;9.248;2023-05-22T08:40:33;96615.16;;;22.41;78.63
44131;BME280;29792;48.726;9.248;2023-05-22T08:42:59;96604.50;;;22.43;80.23
44131;BME280;29792;48.726;9.248;2023-05-22T08:45:25;96611.91;;;22.46;79.58
44131;BME280;29792;48.726;9.248;2023-05-22T08:47:54;96609.06;;;22.54;79.33
44131;BME280;29792;48.726;9.248;2023-05-22T08:50:23;96607.41;;;22.66;81.30
44131;BME280;29792;48.726;9.248;2023-05-22T08:52:54;96611.00;;;22.78;80.81
44131;BME280;29792;48.726;9.248;2023-05-22T08:55:21;96611.78;;;22.79;80.36
44131;BME280;29792;48.726;9.248;2023-05-22T08:57:48;96614.84;;;22.69;77.45
44131;BME280;29792;48.726;9.248;2023-05-22T09:00:14;96625.31;;;22.63;79.10
44131;BME280;29792;48.726;9.248;2023-05-22T09:02:40;96618.69;;;22.60;78.96
44131;BME280;29792;48.726;9.248;2023-05-22T09:05:06;96615.91;;;22.55;79.12
44131;BME280;29792;48.726;9.248;2023-05-22T09:07:33;96616.28;;;22.59;80.84
44131;BME280;29792;48.726;9.248;2023-05-22T09:09:58;96612.44;;;22.74;82.27
44131;BME280;29792;48.726;9.248;2023-05-22T09:12:25;96604.09;;;22.91;81.97
44131;BME280;29792;48.726;9.248;2023-05-22T09:14:51;96614.81;;;23.14;81.73
44131;BME280;29792;48.726;9.248;2023-05-22T09:17:16;96611.81;;;23.35;79.02
44131;BME280;29792;48.726;9.248;2023-05-22T09:19:43;96605.88;;;23.53;77.80
44131;BME280;29792;48.726;9.248;2023-05-22T09:22:12;96604.94;;;23.72;77.29
44131;BME280;29792;48.726;9.248;2023-05-22T09:24:39;96600.97;;;23.88;76.98
44131;BME280;29792;48.726;9.248;2023-05-22T09:27:06;96597.63;;;23.99;76.69
44131;BME280;29792;48.726;9.248;2023-05-22T09:29:32;96602.78;;;24.06;76.27
44131;BME280;29792;48.726;9.248;2023-05-22T09:32:00;96612.31;;;24.18;74.82
44131;BME280;29792;48.726;9.248;2023-05-22T09:34:29;96608.34;;;24.34;75.31
44131;BME280;29792;48.726;9.248;2023-05-22T09:37:00;96605.34;;;24.49;74.12
44131;BME280;29792;48.726;9.248;2023-05-22T09:39:37;96602.91;;;24.65;74.73
44131;BME280;29792;48.726;9.248;2023-05-22T09:42:02;96604.47;;;24.85;76.07
44131;BME280;29792;48.726;9.248;2023-05-22T09:44:29;96600.81;;;25.04;75.07
44131;BME280;29792;48.726;9.248;2023-05-22T09:46:54;96597.66;;;25.25;74.03
44131;BME280;29792;48.726;9.248;2023-05-22T09:49:20;96596.44;;;25.39;72.59
44131;BME280;29792;48.726;9.248;2023-05-22T09:51:45;96600.69;;;25.52;72.36
44131;BME280;29792;48.726;9.248;2023-05-22T09:54:12;96595.53;;;25.57;69.37
44131;BME280;29792;48.726;9.248;2023-05-22T09:56:40;96600.38;;;25.60;68.93
44131;BME280;29792;48.726;9.248;2023-05-22T09:59:08;96605.41;;;25.62;68.34
44131;BME280;29792;48.726;9.248;2023-05-22T10:01:34;96603.78;;;25.72;70.00
44131;BME280;29792;48.726;9.248;2023-05-22T10:04:00;96612.47;;;25.84;69.93
44131;BME280;29792;48.726;9.248;2023-05-22T10:06:26;96601.97;;;25.84;67.11
44131;BME280;29792;48.726;9.248;2023-05-22T10:09:01;96590.56;;;25.91;69.82
44131;BME280;29792;48.726;9.248;2023-05-22T10:11:29;96593.63;;;25.99;68.81
44131;BME280;29792;48.726;9.248;2023-05-22T10:13:56;96592.47;;;26.07;66.11
44131;BME280;29792;48.726;9.248;2023-05-22T10:16:23;96595.44;;;26.10;67.10
44131;BME280;29792;48.726;9.248;2023-05-22T10:18:50;96596.44;;;26.21;68.16
44131;BME280;29792;48.726;9.248;2023-05-22T10:21:16;96598.84;;;26.34;68.83
44131;BME280;29792;48.726;9.248;2023-05-22T10:23:42;96592.97;;;26.44;66.78
44131;BME280;29792;48.726;9.248;2023-05-22T10:26:08;96599.16;;;26.49;65.62
44131;BME280;29792;48.726;9.248;2023-05-22T10:28:40;96598.22;;;26.55;65.73
44131;BME280;29792;48.726;9.248;2023-05-22T10:33:44;96594.19;;;26.65;63.18
44131;BME280;29792;48.726;9.248;2023-05-22T10:36:19;96589.72;;;26.65;63.86
44131;BME280;29792;48.726;9.248;2023-05-22T10:41:43;96578.03;;;26.73;62.29
44131;BME280;29792;48.726;9.248;2023-05-22T10:44:08;96577.31;;;26.77;63.27
44131;BME280;29792;48.726;9.248;2023-05-22T10:46:35;96582.19;;;26.85;62.20
44131;BME280;29792;48.726;9.248;2023-05-22T10:49:00;96570.78;;;26.91;63.75
44131;BME280;29792;48.726;9.248;2023-05-22T10:51:26;96565.38;;;26.98;63.42
44131;BME280;29792;48.726;9.248;2023-05-22T10:53:56;96567.03;;;27.04;62.39
44131;BME280;29792;48.726;9.248;2023-05-22T10:56:22;96561.41;;;27.12;62.68
44131;BME280;29792;48.726;9.248;2023-05-22T10:58:59;96567.00;;;27.16;62.38
44131;BME280;29792;48.726;9.248;2023-05-22T11:01:29;96559.97;;;27.21;63.96
44131;BME280;29792;48.726;9.248;2023-05-22T11:04:08;96559.47;;;27.24;62.51
44131;BME280;29792;48.726;9.248;2023-05-22T11:06:37;96551.19;;;27.32;61.94
44131;BME280;29792;48.726;9.248;2023-05-22T11:09:28;96559.16;;;27.38;61.06
44131;BME280;29792;48.726;9.248;2023-05-22T11:12:26;96554.69;;;27.38;59.08
44131;BME280;29792;48.726;9.248;2023-05-22T11:15:07;96552.53;;;27.35;59.43
44131;BME280;29792;48.726;9.248;2023-05-22T11:17:39;96544.88;;;27.33;58.45
44131;BME280;29792;48.726;9.248;2023-05-22T11:20:13;96545.16;;;27.32;59.14
44131;BME280;29792;48.726;9.248;2023-05-22T11:22:49;96549.13;;;27.34;57.65
44131;BME280;29792;48.726;9.248;2023-05-22T11:25:17;96537.56;;;27.35;57.64
44131;BME280;29792;48.726;9.248;2023-05-22T11:27:43;96540.00;;;27.42;59.71
44131;BME280;29792;48.726;9.248;2023-05-22T11:30:09;96534.91;;;27.52;59.94
44131;BME280;29792;48.726;9.248;2023-05-22T11:32:36;96533.25;;;27.63;59.05
44131;BME280;29792;48.726;9.248;2023-05-22T11:35:02;96530.50;;;27.75;59.22
44131;BME280;29792;48.726;9.248;2023-05-22T11:37:30;96537.44;;;27.81;57.28
44131;BME280;29792;48.726;9.248;2023-05-22T11:39:57;96533.50;;;27.83;55.81
44131;BME280;29792;48.726;9.248;2023-05-22T11:42:23;96524.91;;;27.88;57.31
44131;BME280;29792;48.726;9.248;2023-05-22T11:44:49;96528.38;;;27.93;56.12
44131;BME280;29792;48.726;9.248;2023-05-22T11:47:14;96530.53;;;27.96;56.69
44131;BME280;29792;48.726;9.248;2023-05-22T11:49:40;96519.50;;;27.99;56.11
44131;BME280;29792;48.726;9.248;2023-05-22T11:52:07;96511.69;;;28.04;56.96
44131;BME280;29792;48.726;9.248;2023-05-22T11:54:32;96511.97;;;28.08;55.49
44131;BME280;29792;48.726;9.248;2023-05-22T11:56:57;96521.00;;;28.12;55.60
44131;BME280;29792;48.726;9.248;2023-05-22T11:59:23;96517.63;;;28.17;55.64
44131;BME280;29792;48.726;9.248;2023-05-22T12:01:49;96509.25;;;28.20;53.92
44131;BME280;29792;48.726;9.248;2023-05-22T12:04:14;96505.81;;;28.19;54.27
44131;BME280;29792;48.726;9.248;2023-05-22T12:06:40;96502.16;;;28.20;54.44
44131;BME280;29792;48.726;9.248;2023-05-22T12:09:06;96507.13;;;28.22;53.98
44131;BME280;29792;48.726;9.248;2023-05-22T12:11:34;96518.78;;;28.26;53.39
44131;BME280;29792;48.726;9.248;2023-05-22T12:14:01;96503.53;;;28.28;51.48
44131;BME280;29792;48.726;9.248;2023-05-22T12:16:26;96500.91;;;28.28;52.28
44131;BME280;29792;48.726;9.248;2023-05-22T12:18:52;96499.13;;;28.33;52.98
44131;BME280;29792;48.726;9.248;2023-05-22T12:21:19;96501.53;;;28.40;53.66
44131;BME280;29792;48.726;9.248;2023-05-22T12:23:49;96498.97;;;28.45;53.67
44131;BME280;29792;48.726;9.248;2023-05-22T12:26:15;96502.22;;;28.52;54.78
44131;BME280;29792;48.726;9.248;2023-05-22T12:28:41;96500.72;;;28.61;54.42
44131;BME280;29792;48.726;9.248;2023-05-22T12:31:06;96493.88;;;28.65;51.90
44131;BME280;29792;48.726;9.248;2023-05-22T12:33:32;96504.75;;;28.69;51.16
44131;BME280;29792;48.726;9.248;2023-05-22T12:35:57;96503.16;;;28.68;50.76
44131;BME280;29792;48.726;9.248;2023-05-22T12:38:30;96509.72;;;28.65;50.34
44131;BME280;29792;48.726;9.248;2023-05-22T12:40:55;96504.44;;;28.65;50.07
44131;BME280;29792;48.726;9.248;2023-05-22T12:43:24;96507.06;;;28.65;49.84
44131;BME280;29792;48.726;9.248;2023-05-22T12:45:50;96512.66;;;28.69;50.06
44131;BME280;29792;48.726;9.248;2023-05-22T12:48:16;96506.88;;;28.72;49.28
44131;BME280;29792;48.726;9.248;2023-05-22T12:50:45;96517.22;;;28.78;49.22
44131;BME280;29792;48.726;9.248;2023-05-22T12:53:11;96512.81;;;28.84;50.12
44131;BME280;29792;48.726;9.248;2023-05-22T12:55:37;96506.78;;;28.89;49.74
44131;BME280;29792;48.726;9.248;2023-05-22T12:58:02;96504.38;;;28.87;48.69
44131;BME280;29792;48.726;9.248;2023-05-22T13:00:28;96506.78;;;28.89;49.72
44131;BME280;29792;48.726;9.248;2023-05-22T13:02:53;96505.19;;;28.88;47.61
44131;BME280;29792;48.726;9.248;2023-05-22T13:05:19;96488.53;;;28.82;47.02